Airfield :
LOGIN :

Register | Disclaimer

   EN    FR    IT 

 










Legend :    VFR   Marginal VFR   IFR   Intensive IFR   Very Intensive IFR
Visi :
Ceiling :
>= 8 km
>= 3000ft
5 to 8 km
1000 to 3000 ft
1500m to 5 km
500 to 1000 ft
800 to 1500m
200 to 500 ft
< 800m
< 200 ft
Symbols :   Thunderstorms  Fog  Heavy snow  Heavy precipitations  Wind > 20 kt
SIGMETs :     Misc.  Thunderstorms  Icing  Turbulence  Mountain Waves  Volcanic Ashes







- Airport Elevation : 870 ft
- IATA code : ETZ
- Download approach charts


LFJL - Metz Nancy Lorraine

CURRENT METAR :
  • 222330Z AUTO 28010KT 9999 NCD 23/16 Q1015 NOSIG

EXPIRED METARs :
  • 222300Z AUTO 28008KT 9999 NCD 24/16 Q1015 NOSIG
  • 222230Z AUTO 29010KT 9999 NCD 25/16 Q1014 NOSIG
  • 222200Z AUTO 30008KT 9999 NCD 26/18 Q1014 NOSIG
  • 222130Z AUTO 29010KT 9999 NCD 26/17 Q1014 NOSIG
  • 222100Z AUTO 24009KT 220V290 9999 NCD 27/11 Q1013 NOSIG

TAF TAF LFJL
Valid from the 23 at 00:00 until the 24 at 00:00 UTC


222300Z 2300/2324 26006KT CAVOK
TEMPO 2310/2319 28012G22KT
No reported NOTAMs for that airfield.



MET'MAP, your aeronautical weather chart ! - Copyright ORBIFLY December 2007 - Disclaimer

ORBIFLY MET'MAP TEAM :

Programming & Development : Alexandra Zaïnal
Concept & Development : Baudouin d'Aumeries
Co-Development & Prog : Marc-Olivier Méhu
Technical & hardware support : Manuel Goepfert

Contact : metmap@orbifly.com




SOURCES & CREDITS :

   NOAA